sensor_id;sensor_type;location;lat;lon;timestamp;pressure;altitude;pressure_sealevel;temperature
15544;BMP180;7873;52.230;12.856;2024-01-10T00:02:14;102655.81;;;28.24
15544;BMP180;7873;52.230;12.856;2024-01-10T00:04:41;102654.75;;;28.17
15544;BMP180;7873;52.230;12.856;2024-01-10T00:07:07;102655.06;;;28.14
15544;BMP180;7873;52.230;12.856;2024-01-10T00:09:34;102657.97;;;28.13
15544;BMP180;7873;52.230;12.856;2024-01-10T00:12:02;102653.38;;;28.13
15544;BMP180;7873;52.230;12.856;2024-01-10T00:14:28;102652.38;;;28.14
15544;BMP180;7873;52.230;12.856;2024-01-10T00:16:55;102650.66;;;28.13
15544;BMP180;7873;52.230;12.856;2024-01-10T00:19:22;102650.84;;;28.12
15544;BMP180;7873;52.230;12.856;2024-01-10T00:21:49;102648.28;;;28.10
15544;BMP180;7873;52.230;12.856;2024-01-10T00:24:15;102645.91;;;28.07
15544;BMP180;7873;52.230;12.856;2024-01-10T00:26:42;102638.13;;;28.04
15544;BMP180;7873;52.230;12.856;2024-01-10T00:29:10;102644.88;;;28.00
15544;BMP180;7873;52.230;12.856;2024-01-10T00:31:36;102640.09;;;27.94
15544;BMP180;7873;52.230;12.856;2024-01-10T00:34:03;102632.63;;;27.88
15544;BMP180;7873;52.230;12.856;2024-01-10T00:36:29;102638.72;;;27.82
15544;BMP180;7873;52.230;12.856;2024-01-10T00:38:56;102644.94;;;27.75
15544;BMP180;7873;52.230;12.856;2024-01-10T00:41:22;102633.03;;;27.68
15544;BMP180;7873;52.230;12.856;2024-01-10T00:43:49;102640.09;;;27.61
15544;BMP180;7873;52.230;12.856;2024-01-10T00:46:17;102647.84;;;27.56
15544;BMP180;7873;52.230;12.856;2024-01-10T00:48:43;102651.22;;;27.50
15544;BMP180;7873;52.230;12.856;2024-01-10T00:51:10;102638.34;;;27.44
15544;BMP180;7873;52.230;12.856;2024-01-10T00:53:36;102639.13;;;27.37
15544;BMP180;7873;52.230;12.856;2024-01-10T00:56:04;102637.06;;;27.31
15544;BMP180;7873;52.230;12.856;2024-01-10T00:58:31;102634.28;;;27.23
15544;BMP180;7873;52.230;12.856;2024-01-10T01:00:57;102634.09;;;27.16
15544;BMP180;7873;52.230;12.856;2024-01-10T01:03:25;102632.16;;;27.09
15544;BMP180;7873;52.230;12.856;2024-01-10T01:05:52;102643.28;;;27.06
15544;BMP180;7873;52.230;12.856;2024-01-10T01:08:18;102638.34;;;27.01
15544;BMP180;7873;52.230;12.856;2024-01-10T01:10:45;102636.09;;;26.97
15544;BMP180;7873;52.230;12.856;2024-01-10T01:13:11;102644.41;;;26.95
15544;BMP180;7873;52.230;12.856;2024-01-10T01:15:38;102644.53;;;26.94
15544;BMP180;7873;52.230;12.856;2024-01-10T01:18:04;102644.84;;;26.91
15544;BMP180;7873;52.230;12.856;2024-01-10T01:20:32;102637.75;;;26.90
15544;BMP180;7873;52.230;12.856;2024-01-10T01:22:59;102645.19;;;26.88
15544;BMP180;7873;52.230;12.856;2024-01-10T01:25:26;102633.50;;;26.87
15544;BMP180;7873;52.230;12.856;2024-01-10T01:27:52;102636.19;;;26.87
15544;BMP180;7873;52.230;12.856;2024-01-10T01:30:19;102632.66;;;26.87
15544;BMP180;7873;52.230;12.856;2024-01-10T01:32:47;102633.66;;;26.86
15544;BMP180;7873;52.230;12.856;2024-01-10T01:35:13;102635.81;;;26.82
15544;BMP180;7873;52.230;12.856;2024-01-10T01:37:42;102631.56;;;26.80
15544;BMP180;7873;52.230;12.856;2024-01-10T01:40:09;102629.19;;;26.77
15544;BMP180;7873;52.230;12.856;2024-01-10T01:42:35;102624.97;;;26.74
15544;BMP180;7873;52.230;12.856;2024-01-10T01:45:02;102620.00;;;26.70
15544;BMP180;7873;52.230;12.856;2024-01-10T01:47:29;102627.56;;;26.66
15544;BMP180;7873;52.230;12.856;2024-01-10T01:49:56;102623.34;;;26.64
15544;BMP180;7873;52.230;12.856;2024-01-10T01:52:22;102614.69;;;26.60
15544;BMP180;7873;52.230;12.856;2024-01-10T01:54:51;102616.84;;;26.57
15544;BMP180;7873;52.230;12.856;2024-01-10T01:57:17;102611.59;;;26.55
15544;BMP180;7873;52.230;12.856;2024-01-10T01:59:44;102613.75;;;26.52
15544;BMP180;7873;52.230;12.856;2024-01-10T02:02:11;102607.94;;;26.47
15544;BMP180;7873;52.230;12.856;2024-01-10T02:04:38;102604.56;;;26.45
15544;BMP180;7873;52.230;12.856;2024-01-10T02:07:06;102606.69;;;26.41
15544;BMP180;7873;52.230;12.856;2024-01-10T02:09:32;102598.91;;;26.38
15544;BMP180;7873;52.230;12.856;2024-01-10T02:12:00;102597.53;;;26.34
15544;BMP180;7873;52.230;12.856;2024-01-10T02:14:27;102597.84;;;26.31
15544;BMP180;7873;52.230;12.856;2024-01-10T02:16:53;102600.84;;;26.28
15544;BMP180;7873;52.230;12.856;2024-01-10T02:19:21;102612.09;;;26.24
15544;BMP180;7873;52.230;12.856;2024-01-10T02:21:48;102608.56;;;26.23
15544;BMP180;7873;52.230;12.856;2024-01-10T02:24:14;102611.72;;;26.19
15544;BMP180;7873;52.230;12.856;2024-01-10T02:26:42;102600.38;;;26.15
15544;BMP180;7873;52.230;12.856;2024-01-10T02:29:09;102610.78;;;26.10
15544;BMP180;7873;52.230;12.856;2024-01-10T02:31:36;102609.91;;;26.10
15544;BMP180;7873;52.230;12.856;2024-01-10T02:34:02;102606.69;;;26.06
15544;BMP180;7873;52.230;12.856;2024-01-10T02:36:28;102607.84;;;26.04
15544;BMP180;7873;52.230;12.856;2024-01-10T02:38:55;102604.59;;;26.00
15544;BMP180;7873;52.230;12.856;2024-01-10T02:41:21;102599.47;;;25.97
15544;BMP180;7873;52.230;12.856;2024-01-10T02:43:49;102603.34;;;25.95
15544;BMP180;7873;52.230;12.856;2024-01-10T02:46:16;102596.41;;;25.92
15544;BMP180;7873;52.230;12.856;2024-01-10T02:48:42;102595.00;;;25.88
15544;BMP180;7873;52.230;12.856;2024-01-10T02:51:09;102596.88;;;25.88
15544;BMP180;7873;52.230;12.856;2024-01-10T02:53:35;102593.72;;;25.83
15544;BMP180;7873;52.230;12.856;2024-01-10T02:56:02;102594.72;;;25.82
15544;BMP180;7873;52.230;12.856;2024-01-10T02:58:29;102592.31;;;25.79
15544;BMP180;7873;52.230;12.856;2024-01-10T03:00:56;102597.03;;;25.77
15544;BMP180;7873;52.230;12.856;2024-01-10T03:03:24;102590.06;;;25.74
15544;BMP180;7873;52.230;12.856;2024-01-10T03:05:50;102590.38;;;25.71
15544;BMP180;7873;52.230;12.856;2024-01-10T03:08:17;102585.97;;;25.70
15544;BMP180;7873;52.230;12.856;2024-01-10T03:10:43;102587.16;;;25.68
15544;BMP180;7873;52.230;12.856;2024-01-10T03:13:10;102593.81;;;25.64
15544;BMP180;7873;52.230;12.856;2024-01-10T03:15:36;102590.41;;;25.62
15544;BMP180;7873;52.230;12.856;2024-01-10T03:18:04;102592.41;;;25.60
15544;BMP180;7873;52.230;12.856;2024-01-10T03:20:31;102596.28;;;25.58
15544;BMP180;7873;52.230;12.856;2024-01-10T03:22:57;102591.31;;;25.53
15544;BMP180;7873;52.230;12.856;2024-01-10T03:25:24;102589.63;;;25.52
15544;BMP180;7873;52.230;12.856;2024-01-10T03:27:50;102588.94;;;25.50
15544;BMP180;7873;52.230;12.856;2024-01-10T03:30:17;102591.75;;;25.49
15544;BMP180;7873;52.230;12.856;2024-01-10T03:32:43;102585.84;;;25.45
15544;BMP180;7873;52.230;12.856;2024-01-10T03:35:11;102580.56;;;25.44
15544;BMP180;7873;52.230;12.856;2024-01-10T03:37:38;102586.13;;;25.42
15544;BMP180;7873;52.230;12.856;2024-01-10T03:40:05;102584.28;;;25.43
15544;BMP180;7873;52.230;12.856;2024-01-10T03:42:32;102587.28;;;25.40
15544;BMP180;7873;52.230;12.856;2024-01-10T03:44:58;102582.19;;;25.37
15544;BMP180;7873;52.230;12.856;2024-01-10T03:47:25;102591.28;;;25.36
15544;BMP180;7873;52.230;12.856;2024-01-10T03:49:51;102583.47;;;25.33
15544;BMP180;7873;52.230;12.856;2024-01-10T03:52:19;102580.91;;;25.31
15544;BMP180;7873;52.230;12.856;2024-01-10T03:54:46;102582.03;;;25.29
15544;BMP180;7873;52.230;12.856;2024-01-10T03:57:12;102581.22;;;25.28
15544;BMP180;7873;52.230;12.856;2024-01-10T03:59:39;102581.34;;;25.27
15544;BMP180;7873;52.230;12.856;2024-01-10T04:02:05;102578.94;;;25.24
15544;BMP180;7873;52.230;12.856;2024-01-10T04:04:32;102581.94;;;25.21
15544;BMP180;7873;52.230;12.856;2024-01-10T04:06:58;102571.31;;;25.19
15544;BMP180;7873;52.230;12.856;2024-01-10T04:09:26;102577.56;;;25.20
15544;BMP180;7873;52.230;12.856;2024-01-10T04:11:52;102587.72;;;25.16
15544;BMP180;7873;52.230;12.856;2024-01-10T04:14:19;102579.81;;;25.15
15544;BMP180;7873;52.230;12.856;2024-01-10T04:16:45;102574.56;;;25.13
15544;BMP180;7873;52.230;12.856;2024-01-10T04:19:12;102567.63;;;25.11
15544;BMP180;7873;52.230;12.856;2024-01-10T04:21:38;102574.84;;;25.10
15544;BMP180;7873;52.230;12.856;2024-01-10T04:24:05;102566.91;;;25.09
15544;BMP180;7873;52.230;12.856;2024-01-10T04:26:32;102567.34;;;25.04
15544;BMP180;7873;52.230;12.856;2024-01-10T04:28:58;102575.44;;;25.04
15544;BMP180;7873;52.230;12.856;2024-01-10T04:31:24;102579.97;;;25.04
15544;BMP180;7873;52.230;12.856;2024-01-10T04:33:51;102580.13;;;25.02
15544;BMP180;7873;52.230;12.856;2024-01-10T04:36:17;102580.25;;;25.01
15544;BMP180;7873;52.230;12.856;2024-01-10T04:38:44;102576.03;;;24.98
15544;BMP180;7873;52.230;12.856;2024-01-10T04:41:10;102579.84;;;24.96
15544;BMP180;7873;52.230;12.856;2024-01-10T04:43:38;102576.47;;;24.94
15544;BMP180;7873;52.230;12.856;2024-01-10T04:46:05;102566.81;;;24.91
15544;BMP180;7873;52.230;12.856;2024-01-10T04:48:31;102575.88;;;24.90
15544;BMP180;7873;52.230;12.856;2024-01-10T04:50:58;102573.06;;;24.92
15544;BMP180;7873;52.230;12.856;2024-01-10T04:53:24;102572.34;;;24.90
15544;BMP180;7873;52.230;12.856;2024-01-10T04:55:51;102570.78;;;24.97
15544;BMP180;7873;52.230;12.856;2024-01-10T04:58:17;102571.34;;;25.00
15544;BMP180;7873;52.230;12.856;2024-01-10T05:00:45;102574.16;;;25.08
15544;BMP180;7873;52.230;12.856;2024-01-10T05:03:12;102565.63;;;25.13
15544;BMP180;7873;52.230;12.856;2024-01-10T05:05:38;102558.84;;;25.18
15544;BMP180;7873;52.230;12.856;2024-01-10T05:08:05;102561.22;;;25.21
15544;BMP180;7873;52.230;12.856;2024-01-10T05:10:32;102555.25;;;25.27
15544;BMP180;7873;52.230;12.856;2024-01-10T05:12:59;102546.88;;;25.21
15544;BMP180;7873;52.230;12.856;2024-01-10T05:15:25;102545.38;;;24.99
15544;BMP180;7873;52.230;12.856;2024-01-10T05:17:53;102544.69;;;24.88
15544;BMP180;7873;52.230;12.856;2024-01-10T05:20:19;102541.31;;;24.86
15544;BMP180;7873;52.230;12.856;2024-01-10T05:22:46;102540.72;;;24.92
15544;BMP180;7873;52.230;12.856;2024-01-10T05:25:12;102546.13;;;24.82
15544;BMP180;7873;52.230;12.856;2024-01-10T05:27:39;102550.22;;;24.86
15544;BMP180;7873;52.230;12.856;2024-01-10T05:30:07;102548.38;;;24.96
15544;BMP180;7873;52.230;12.856;2024-01-10T05:32:33;102550.19;;;25.05
15544;BMP180;7873;52.230;12.856;2024-01-10T05:35:01;102553.97;;;25.12
15544;BMP180;7873;52.230;12.856;2024-01-10T05:37:28;102550.44;;;25.21
15544;BMP180;7873;52.230;12.856;2024-01-10T05:39:54;102560.75;;;25.26
15544;BMP180;7873;52.230;12.856;2024-01-10T05:42:21;102555.50;;;25.34
15544;BMP180;7873;52.230;12.856;2024-01-10T05:44:47;102548.19;;;25.44
15544;BMP180;7873;52.230;12.856;2024-01-10T05:47:14;102547.72;;;25.58
15544;BMP180;7873;52.230;12.856;2024-01-10T05:49:40;102551.28;;;25.75
15544;BMP180;7873;52.230;12.856;2024-01-10T05:52:09;102542.66;;;25.99
15544;BMP180;7873;52.230;12.856;2024-01-10T05:54:35;102541.03;;;26.23
15544;BMP180;7873;52.230;12.856;2024-01-10T05:57:02;102544.97;;;26.46
15544;BMP180;7873;52.230;12.856;2024-01-10T05:59:28;102545.31;;;26.69
15544;BMP180;7873;52.230;12.856;2024-01-10T06:01:56;102542.25;;;26.89
15544;BMP180;7873;52.230;12.856;2024-01-10T06:04:22;102549.41;;;26.98
15544;BMP180;7873;52.230;12.856;2024-01-10T06:06:49;102535.41;;;27.03
15544;BMP180;7873;52.230;12.856;2024-01-10T06:09:16;102545.94;;;27.06
15544;BMP180;7873;52.230;12.856;2024-01-10T06:11:47;102545.00;;;27.23
15544;BMP180;7873;52.230;12.856;2024-01-10T06:14:14;102546.94;;;27.38
15544;BMP180;7873;52.230;12.856;2024-01-10T06:16:40;102547.34;;;27.51
15544;BMP180;7873;52.230;12.856;2024-01-10T06:19:06;102547.69;;;27.56
15544;BMP180;7873;52.230;12.856;2024-01-10T06:21:33;102550.06;;;27.59
15544;BMP180;7873;52.230;12.856;2024-01-10T06:23:59;102550.84;;;27.36
15544;BMP180;7873;52.230;12.856;2024-01-10T06:26:27;102543.03;;;27.07
15544;BMP180;7873;52.230;12.856;2024-01-10T06:28:54;102544.38;;;27.03
15544;BMP180;7873;52.230;12.856;2024-01-10T06:31:20;102543.47;;;26.95
15544;BMP180;7873;52.230;12.856;2024-01-10T06:33:47;102535.53;;;26.93
15544;BMP180;7873;52.230;12.856;2024-01-10T06:36:13;102542.81;;;27.01
15544;BMP180;7873;52.230;12.856;2024-01-10T06:38:40;102539.03;;;26.25
15544;BMP180;7873;52.230;12.856;2024-01-10T06:41:07;102546.28;;;25.17
15544;BMP180;7873;52.230;12.856;2024-01-10T06:43:35;102530.16;;;24.52
15544;BMP180;7873;52.230;12.856;2024-01-10T06:46:02;102532.25;;;24.30
15544;BMP180;7873;52.230;12.856;2024-01-10T06:48:29;102542.47;;;24.64
15544;BMP180;7873;52.230;12.856;2024-01-10T06:50:57;102537.84;;;24.93
15544;BMP180;7873;52.230;12.856;2024-01-10T06:53:23;102542.75;;;25.26
15544;BMP180;7873;52.230;12.856;2024-01-10T06:55:50;102534.34;;;25.56
15544;BMP180;7873;52.230;12.856;2024-01-10T06:58:16;102532.81;;;25.80
15544;BMP180;7873;52.230;12.856;2024-01-10T07:00:44;102530.97;;;25.98
15544;BMP180;7873;52.230;12.856;2024-01-10T07:03:11;102539.94;;;26.16
15544;BMP180;7873;52.230;12.856;2024-01-10T07:05:37;102544.25;;;26.27
15544;BMP180;7873;52.230;12.856;2024-01-10T07:08:04;102533.91;;;26.40
15544;BMP180;7873;52.230;12.856;2024-01-10T07:10:30;102532.69;;;26.52
15544;BMP180;7873;52.230;12.856;2024-01-10T07:12:57;102538.00;;;26.61
15544;BMP180;7873;52.230;12.856;2024-01-10T07:15:24;102526.53;;;26.67
15544;BMP180;7873;52.230;12.856;2024-01-10T07:17:51;102528.47;;;26.75
15544;BMP180;7873;52.230;12.856;2024-01-10T07:20:18;102527.00;;;26.80
15544;BMP180;7873;52.230;12.856;2024-01-10T07:22:45;102538.50;;;26.82
15544;BMP180;7873;52.230;12.856;2024-01-10T07:25:11;102531.75;;;26.86
15544;BMP180;7873;52.230;12.856;2024-01-10T07:27:39;102524.44;;;26.79
15544;BMP180;7873;52.230;12.856;2024-01-10T07:30:07;102531.03;;;26.76
15544;BMP180;7873;52.230;12.856;2024-01-10T07:32:39;102533.53;;;26.78
15544;BMP180;7873;52.230;12.856;2024-01-10T07:35:08;102541.50;;;26.79
15544;BMP180;7873;52.230;12.856;2024-01-10T07:37:35;102543.22;;;26.80
15544;BMP180;7873;52.230;12.856;2024-01-10T07:40:02;102543.56;;;26.85
15544;BMP180;7873;52.230;12.856;2024-01-10T07:42:30;102543.25;;;26.88
15544;BMP180;7873;52.230;12.856;2024-01-10T07:44:56;102541.72;;;26.86
15544;BMP180;7873;52.230;12.856;2024-01-10T07:47:23;102549.84;;;26.86
15544;BMP180;7873;52.230;12.856;2024-01-10T07:49:49;102548.97;;;26.85
15544;BMP180;7873;52.230;12.856;2024-01-10T07:52:17;102550.22;;;26.91
15544;BMP180;7873;52.230;12.856;2024-01-10T07:54:44;102546.13;;;26.87
15544;BMP180;7873;52.230;12.856;2024-01-10T07:57:11;102547.97;;;26.86
15544;BMP180;7873;52.230;12.856;2024-01-10T07:59:37;102540.72;;;26.87
15544;BMP180;7873;52.230;12.856;2024-01-10T08:02:04;102549.53;;;26.89
15544;BMP180;7873;52.230;12.856;2024-01-10T08:04:30;102541.56;;;26.87
15544;BMP180;7873;52.230;12.856;2024-01-10T08:06:57;102541.72;;;26.86
15544;BMP180;7873;52.230;12.856;2024-01-10T08:09:26;102540.72;;;26.87
15544;BMP180;7873;52.230;12.856;2024-01-10T08:11:52;102535.47;;;26.85
15544;BMP180;7873;52.230;12.856;2024-01-10T08:14:19;102539.19;;;26.84
15544;BMP180;7873;52.230;12.856;2024-01-10T08:16:45;102538.50;;;26.82
15544;BMP180;7873;52.230;12.856;2024-01-10T08:19:12;102541.06;;;26.84
15544;BMP180;7873;52.230;12.856;2024-01-10T08:21:38;102545.59;;;26.83
15544;BMP180;7873;52.230;12.856;2024-01-10T08:24:06;102541.66;;;26.78
15544;BMP180;7873;52.230;12.856;2024-01-10T08:26:33;102539.31;;;26.57
15544;BMP180;7873;52.230;12.856;2024-01-10T08:29:00;102539.88;;;26.08
15544;BMP180;7873;52.230;12.856;2024-01-10T08:31:27;102533.38;;;25.74
15544;BMP180;7873;52.230;12.856;2024-01-10T08:33:54;102535.09;;;25.75
15544;BMP180;7873;52.230;12.856;2024-01-10T08:36:22;102538.75;;;25.84
15544;BMP180;7873;52.230;12.856;2024-01-10T08:38:49;102546.34;;;25.98
15544;BMP180;7873;52.230;12.856;2024-01-10T08:41:17;102549.81;;;26.08
15544;BMP180;7873;52.230;12.856;2024-01-10T08:43:46;102553.31;;;26.18
15544;BMP180;7873;52.230;12.856;2024-01-10T08:46:13;102551.53;;;26.26
15544;BMP180;7873;52.230;12.856;2024-01-10T08:48:39;102552.91;;;26.30
15544;BMP180;7873;52.230;12.856;2024-01-10T08:51:06;102551.72;;;26.33
15544;BMP180;7873;52.230;12.856;2024-01-10T08:53:35;102542.16;;;26.38
15544;BMP180;7873;52.230;12.856;2024-01-10T08:56:01;102543.72;;;26.41
15544;BMP180;7873;52.230;12.856;2024-01-10T08:58:28;102548.50;;;26.47
15544;BMP180;7873;52.230;12.856;2024-01-10T09:00:55;102544.81;;;26.48
15544;BMP180;7873;52.230;12.856;2024-01-10T09:03:22;102549.75;;;26.52
15544;BMP180;7873;52.230;12.856;2024-01-10T09:05:48;102546.19;;;26.52
15544;BMP180;7873;52.230;12.856;2024-01-10T09:08:15;102549.59;;;26.54
15544;BMP180;7873;52.230;12.856;2024-01-10T09:10:42;102556.19;;;26.51
15544;BMP180;7873;52.230;12.856;2024-01-10T09:13:08;102548.06;;;26.51
15544;BMP180;7873;52.230;12.856;2024-01-10T09:15:35;102546.19;;;26.52
15544;BMP180;7873;52.230;12.856;2024-01-10T09:18:03;102547.06;;;26.52
15544;BMP180;7873;52.230;12.856;2024-01-10T09:20:30;102544.34;;;26.52
15544;BMP180;7873;52.230;12.856;2024-01-10T09:22:56;102547.06;;;26.52
15544;BMP180;7873;52.230;12.856;2024-01-10T09:25:25;102550.13;;;26.05
15544;BMP180;7873;52.230;12.856;2024-01-10T09:27:52;102546.53;;;25.60
15544;BMP180;7873;52.230;12.856;2024-01-10T09:30:19;102553.41;;;25.55
15544;BMP180;7873;52.230;12.856;2024-01-10T09:32:46;102543.41;;;25.64
15544;BMP180;7873;52.230;12.856;2024-01-10T09:35:14;102547.75;;;25.75
15544;BMP180;7873;52.230;12.856;2024-01-10T09:37:41;102550.97;;;25.88
15544;BMP180;7873;52.230;12.856;2024-01-10T09:40:09;102548.72;;;26.01
15544;BMP180;7873;52.230;12.856;2024-01-10T09:42:35;102540.25;;;26.13
15544;BMP180;7873;52.230;12.856;2024-01-10T09:45:04;102541.41;;;26.28
15544;BMP180;7873;52.230;12.856;2024-01-10T09:47:31;102548.94;;;26.42
15544;BMP180;7873;52.230;12.856;2024-01-10T09:49:59;102550.59;;;26.53
15544;BMP180;7873;52.230;12.856;2024-01-10T09:52:29;102547.47;;;26.65
15544;BMP180;7873;52.230;12.856;2024-01-10T09:55:00;102545.69;;;26.74
15544;BMP180;7873;52.230;12.856;2024-01-10T09:57:27;102545.06;;;26.80
15544;BMP180;7873;52.230;12.856;2024-01-10T09:59:56;102544.13;;;26.89
15544;BMP180;7873;52.230;12.856;2024-01-10T10:02:23;102540.44;;;26.98
15544;BMP180;7873;52.230;12.856;2024-01-10T10:04:54;102534.03;;;26.99
15544;BMP180;7873;52.230;12.856;2024-01-10T10:07:23;102540.81;;;27.03
15544;BMP180;7873;52.230;12.856;2024-01-10T10:09:51;102536.78;;;27.07
15544;BMP180;7873;52.230;12.856;2024-01-10T10:12:18;102535.78;;;27.08
15544;BMP180;7873;52.230;12.856;2024-01-10T10:14:45;102534.91;;;27.07
15544;BMP180;7873;52.230;12.856;2024-01-10T10:17:15;102541.72;;;27.11
15544;BMP180;7873;52.230;12.856;2024-01-10T10:19:42;102538.88;;;27.13
15544;BMP180;7873;52.230;12.856;2024-01-10T10:22:10;102534.63;;;27.10
15544;BMP180;7873;52.230;12.856;2024-01-10T10:24:36;102529.22;;;27.10
15544;BMP180;7873;52.230;12.856;2024-01-10T10:27:08;102531.94;;;27.10
15544;BMP180;7873;52.230;12.856;2024-01-10T10:29:36;102536.63;;;27.08
15544;BMP180;7873;52.230;12.856;2024-01-10T10:32:03;102526.31;;;27.04
15544;BMP180;7873;52.230;12.856;2024-01-10T10:34:30;102516.47;;;27.03
15544;BMP180;7873;52.230;12.856;2024-01-10T10:36:57;102515.28;;;26.97
15544;BMP180;7873;52.230;12.856;2024-01-10T10:39:24;102511.78;;;26.79
15544;BMP180;7873;52.230;12.856;2024-01-10T10:41:51;102516.00;;;26.39
15544;BMP180;7873;52.230;12.856;2024-01-10T10:44:23;102518.09;;;26.10
15544;BMP180;7873;52.230;12.856;2024-01-10T10:46:53;102513.94;;;25.98
15544;BMP180;7873;52.230;12.856;2024-01-10T10:49:23;102514.88;;;26.06
15544;BMP180;7873;52.230;12.856;2024-01-10T10:51:52;102506.22;;;26.20
15544;BMP180;7873;52.230;12.856;2024-01-10T10:54:21;102504.50;;;26.37
15544;BMP180;7873;52.230;12.856;2024-01-10T10:56:49;102508.09;;;26.45
15544;BMP180;7873;52.230;12.856;2024-01-10T10:59:18;102496.22;;;26.56
15544;BMP180;7873;52.230;12.856;2024-01-10T11:01:47;102496.13;;;26.65
15544;BMP180;7873;52.230;12.856;2024-01-10T11:04:14;102492.50;;;26.74
15544;BMP180;7873;52.230;12.856;2024-01-10T11:06:41;102501.31;;;26.84
15544;BMP180;7873;52.230;12.856;2024-01-10T11:09:09;102509.31;;;26.94
15544;BMP180;7873;52.230;12.856;2024-01-10T11:11:50;102503.66;;;27.05
15544;BMP180;7873;52.230;12.856;2024-01-10T11:14:23;102496.03;;;27.08
15544;BMP180;7873;52.230;12.856;2024-01-10T11:17:14;102491.88;;;27.14
15544;BMP180;7873;52.230;12.856;2024-01-10T11:20:12;102486.50;;;27.22
15544;BMP180;7873;52.230;12.856;2024-01-10T11:23:00;102484.16;;;27.27
15544;BMP180;7873;52.230;12.856;2024-01-10T11:25:34;102484.69;;;27.30
15544;BMP180;7873;52.230;12.856;2024-01-10T11:28:02;102479.94;;;27.32
15544;BMP180;7873;52.230;12.856;2024-01-10T11:30:33;102482.31;;;27.35
15544;BMP180;7873;52.230;12.856;2024-01-10T11:33:08;102487.75;;;27.35
15544;BMP180;7873;52.230;12.856;2024-01-10T11:36:05;102477.94;;;27.34
15544;BMP180;7873;52.230;12.856;2024-01-10T11:38:32;102483.00;;;27.29
15544;BMP180;7873;52.230;12.856;2024-01-10T11:41:00;102486.72;;;27.28
15544;BMP180;7873;52.230;12.856;2024-01-10T11:43:26;102476.03;;;27.27
15544;BMP180;7873;52.230;12.856;2024-01-10T11:45:55;102480.63;;;27.26
15544;BMP180;7873;52.230;12.856;2024-01-10T11:48:29;102480.41;;;27.20
15544;BMP180;7873;52.230;12.856;2024-01-10T11:50:57;102476.47;;;26.81
15544;BMP180;7873;52.230;12.856;2024-01-10T11:53:38;102480.81;;;26.74
15544;BMP180;7873;52.230;12.856;2024-01-10T11:56:09;102477.31;;;26.81
15544;BMP180;7873;52.230;12.856;2024-01-10T11:58:52;102470.56;;;26.85
15544;BMP180;7873;52.230;12.856;2024-01-10T12:01:19;102470.78;;;26.92
15544;BMP180;7873;52.230;12.856;2024-01-10T12:03:51;102465.59;;;26.98
15544;BMP180;7873;52.230;12.856;2024-01-10T12:06:19;102460.38;;;27.05
15544;BMP180;7873;52.230;12.856;2024-01-10T12:08:47;102462.28;;;27.12
15544;BMP180;7873;52.230;12.856;2024-01-10T12:11:13;102466.19;;;27.18
15544;BMP180;7873;52.230;12.856;2024-01-10T12:13:41;102469.25;;;27.23
15544;BMP180;7873;52.230;12.856;2024-01-10T12:16:07;102470.13;;;27.31
15544;BMP180;7873;52.230;12.856;2024-01-10T12:18:34;102463.22;;;27.37
15544;BMP180;7873;52.230;12.856;2024-01-10T12:21:01;102459.38;;;27.39
15544;BMP180;7873;52.230;12.856;2024-01-10T12:23:28;102463.59;;;27.41
15544;BMP180;7873;52.230;12.856;2024-01-10T12:25:57;102467.84;;;27.44
15544;BMP180;7873;52.230;12.856;2024-01-10T12:28:23;102459.38;;;27.47
15544;BMP180;7873;52.230;12.856;2024-01-10T12:30:51;102463.78;;;27.48
15544;BMP180;7873;52.230;12.856;2024-01-10T12:33:21;102463.94;;;27.46
15544;BMP180;7873;52.230;12.856;2024-01-10T12:36:03;102460.22;;;27.47
15544;BMP180;7873;52.230;12.856;2024-01-10T12:38:30;102460.22;;;27.47
15544;BMP180;7873;52.230;12.856;2024-01-10T12:40:57;102455.66;;;27.48
15544;BMP180;7873;52.230;12.856;2024-01-10T12:43:24;102454.78;;;27.47
15544;BMP180;7873;52.230;12.856;2024-01-10T12:46:02;102447.69;;;27.46
15544;BMP180;7873;52.230;12.856;2024-01-10T12:48:28;102443.81;;;27.49
15544;BMP180;7873;52.230;12.856;2024-01-10T12:50:55;102440.97;;;27.50
15544;BMP180;7873;52.230;12.856;2024-01-10T12:53:23;102436.53;;;27.49
15544;BMP180;7873;52.230;12.856;2024-01-10T12:55:49;102448.22;;;27.50
15544;BMP180;7873;52.230;12.856;2024-01-10T12:58:16;102447.34;;;27.49
15544;BMP180;7873;52.230;12.856;2024-01-10T13:00:42;102436.53;;;27.49
15544;BMP180;7873;52.230;12.856;2024-01-10T13:03:09;102426.91;;;27.55
15544;BMP180;7873;52.230;12.856;2024-01-10T13:05:35;102426.75;;;27.56
15544;BMP180;7873;52.230;12.856;2024-01-10T13:08:02;102421.84;;;27.60
15544;BMP180;7873;52.230;12.856;2024-01-10T13:10:32;102424.53;;;27.60
15544;BMP180;7873;52.230;12.856;2024-01-10T13:12:58;102422.88;;;27.67
15544;BMP180;7873;52.230;12.856;2024-01-10T13:15:25;102424.38;;;27.69
15544;BMP180;7873;52.230;12.856;2024-01-10T13:17:51;102420.19;;;27.75
15544;BMP180;7873;52.230;12.856;2024-01-10T13:20:18;102419.38;;;27.82
15544;BMP180;7873;52.230;12.856;2024-01-10T13:22:44;102416.50;;;27.92
15544;BMP180;7873;52.230;12.856;2024-01-10T13:25:11;102414.63;;;28.00
15544;BMP180;7873;52.230;12.856;2024-01-10T13:27:39;102411.91;;;28.08
15544;BMP180;7873;52.230;12.856;2024-01-10T13:30:06;102412.44;;;28.12
15544;BMP180;7873;52.230;12.856;2024-01-10T13:32:33;102421.88;;;28.24
15544;BMP180;7873;52.230;12.856;2024-01-10T13:34:59;102417.84;;;28.36
15544;BMP180;7873;52.230;12.856;2024-01-10T13:37:26;102410.22;;;28.47
15544;BMP180;7873;52.230;12.856;2024-01-10T13:39:54;102422.72;;;28.56
15544;BMP180;7873;52.230;12.856;2024-01-10T13:42:20;102412.19;;;28.61
15544;BMP180;7873;52.230;12.856;2024-01-10T13:44:50;102413.38;;;28.67
15544;BMP180;7873;52.230;12.856;2024-01-10T13:47:17;102414.34;;;28.74
15544;BMP180;7873;52.230;12.856;2024-01-10T13:49:44;102414.84;;;28.77
15544;BMP180;7873;52.230;12.856;2024-01-10T13:52:10;102409.94;;;28.81
15544;BMP180;7873;52.230;12.856;2024-01-10T13:54:36;102406.22;;;28.74
15544;BMP180;7873;52.230;12.856;2024-01-10T13:57:03;102410.78;;;28.81
15544;BMP180;7873;52.230;12.856;2024-01-10T13:59:30;102412.09;;;28.85